الصفحة الرئيسية
METAR-TAF:

METAR-TAF

مطار :

مطار مليلية

مليلية, إسبانيا

دائرة عرض: 35-17N, خط طول: 002-57W, ارتفاع: 47 متر

مراقبة الطقس الحالي

تاريخ ووقت الإصدار 20 دقيقة قبل الساعة 02:00UTC
ريح 1 عقدةمن اتجاهات متغيرة
درجة الحرارة 23°درجة مئوية
الرطوبة 83%
ضغط 1019 hPa
الرؤية 10 كم أو أكثر
ملبد بالغيوم على ارتفاع 900 قدم

METAR: GEML 040200Z AUTO VRB01KT 9999 OVC009 23/20 Q1019

زمن: 04:20 (02:20 UTC)

توقعات

تاريخ ووقت الإصدار 6ساعات و 20 دقيقة قبل الساعة 20:00UTC
التوقعات صالحة من03 الساعة 21 UTC إلى 04 الساعة 21 UTC
ريح 6 عقدة من الشرق
الرؤية 10 كم أو أكثر
الغيوم لا تقل 1500 م ولا وجود لمزنة ركامية السحاب الأسود
مؤقت
من 03 الساعة 22 UTC إلى 04 الساعة 10 UTC
غيوم مفككة على ارتفاع 1200 قدم
نظرية الاحتمالات 30% :
مؤقت
من 03 الساعة 22 UTC إلى 04 الساعة 04 UTC
غيوم مفككة على ارتفاع 600 قدم

TAF: GEML 032000Z 0321/0421 08006KT CAVOK TX30/0414Z TN22/0405Z TEMPO 0322/0410 BKN012 PROB30 TEMPO 0322/0404 BKN006

أرصاد الطقس والتوقعات من أكثر من 4000 مطار (تقارير الطقس للمطار METAR والتنبؤ بالطقس بالمطارTAF).

المحطات المتاحة هي النقط الصفراء والحمراء على الخريطة.

حرك المؤشر فوق النقطة لمعرفة اسم المحطة.

ثم انقر لمعرفة أرصاد وتوقعات الطقس.

لتغيير الخارطة: اضغط على الأزرار الخضراء مع رمز الصليب الأسود للتكبير. على الزر الأخضر مع شرطة للتصغير، أو على الأسهم الخضراء للخرائط المجاورة.


METAR-TAF: